Time;durP1;ratioP1;P1;durP2;ratioP2;P2;SDS_P1;SDS_P2;PMS_P1;PMS_P2;Temp;Humidity;BMP_temperature;BMP_pressure;BME280_temperature;BME280_humidity;BME280_pressure;Samples;Min_cycle;Max_cycle;Signal;HPM_P1;HPM_P2
2023/10/13 00:00:29;;;;;;;0.93;0.70;;;15.00;99.90;;;;;;5065685;28;20440;-72
2023/10/13 00:03:00;;;;;;;0.40;0.40;;;15.00;99.90;;;;;;5060618;28;20056;-72
2023/10/13 00:05:27;;;;;;;0.82;0.82;;;15.00;99.90;;;;;;5056759;28;20052;-73
2023/10/13 00:07:53;;;;;;;1.10;1.02;;;15.10;99.90;;;;;;5062024;28;20045;-73
2023/10/13 00:10:19;;;;;;;0.75;0.75;;;15.10;99.90;;;;;;5044973;28;20040;-73
2023/10/13 00:12:49;;;;;;;0.80;0.80;;;15.20;99.90;;;;;;5065851;28;20101;-73
2023/10/13 00:15:17;;;;;;;0.70;0.70;;;15.20;99.90;;;;;;5062160;28;20494;-73
2023/10/13 00:17:43;;;;;;;0.50;0.50;;;15.30;99.90;;;;;;5066645;28;20048;-73
2023/10/13 00:20:28;;;;;;;0.80;0.80;;;15.30;99.90;;;;;;5043138;28;20494;-73
2023/10/13 00:22:56;;;;;;;2.20;1.42;;;15.40;99.90;;;;;;5047701;28;20044;-73
2023/10/13 00:25:27;;;;;;;2.35;2.15;;;15.40;99.90;;;;;;5049422;28;20032;-73
2023/10/13 00:27:53;;;;;;;0.88;0.88;;;15.50;99.90;;;;;;5052592;28;20037;-73
2023/10/13 00:32:57;;;;;;;0.85;0.85;;;15.50;99.90;;;;;;5056033;28;20627;-73
2023/10/13 00:35:36;;;;;;;1.10;1.02;;;15.50;99.90;;;;;;5059686;28;20044;-73
2023/10/13 00:38:23;;;;;;;1.60;1.50;;;15.50;99.90;;;;;;5047295;28;20045;-73
2023/10/13 00:40:51;;;;;;;3.08;1.13;;;15.50;99.90;;;;;;5045059;28;20116;-73
2023/10/13 00:46:05;;;;;;;0.73;0.73;;;15.60;99.90;;;;;;5059198;28;20055;-73
2023/10/13 00:48:45;;;;;;;0.98;0.95;;;15.70;99.90;;;;;;5040710;28;20032;-73
2023/10/13 00:51:22;;;;;;;1.55;1.15;;;15.70;99.90;;;;;;5060147;28;20116;-73
2023/10/13 00:53:48;;;;;;;1.83;1.73;;;15.70;99.90;;;;;;5059266;28;20045;-73
2023/10/13 00:56:27;;;;;;;0.70;0.70;;;15.70;99.90;;;;;;5036964;28;20037;-73
2023/10/13 00:58:57;;;;;;;2.13;2.00;;;15.80;99.90;;;;;;5064594;28;20049;-73
2023/10/13 01:01:29;;;;;;;0.47;0.47;;;15.80;99.90;;;;;;5063024;28;20056;-74
2023/10/13 01:03:59;;;;;;;1.52;1.42;;;15.80;99.90;;;;;;5063904;28;20119;-74
2023/10/13 01:06:27;;;;;;;1.23;1.20;;;15.80;99.90;;;;;;5045024;28;20044;-74
2023/10/13 01:09:16;;;;;;;0.60;0.60;;;15.80;99.90;;;;;;5068192;28;20036;-74
2023/10/13 01:11:44;;;;;;;0.98;0.98;;;15.80;99.90;;;;;;5065475;28;20040;-74
2023/10/13 01:14:17;;;;;;;;;;;15.90;99.90;;;;;;5043813;28;20048;-74
2023/10/13 01:16:44;;;;;;;1.73;1.33;;;15.90;99.90;;;;;;5062280;28;19920;-74
2023/10/13 01:19:24;;;;;;;1.45;0.90;;;15.90;99.90;;;;;;5068571;28;20413;-74
2023/10/13 01:21:54;;;;;;;1.50;1.50;;;15.90;99.90;;;;;;5053130;28;20032;-74
2023/10/13 01:24:23;;;;;;;1.73;0.93;;;15.90;99.90;;;;;;5063007;28;20035;-75
2023/10/13 01:26:51;;;;;;;2.28;1.40;;;15.90;99.90;;;;;;5056371;28;20047;-74
2023/10/13 01:29:18;;;;;;;1.10;1.00;;;16.00;99.90;;;;;;5069754;28;20040;-74
2023/10/13 01:31:46;;;;;;;0.60;0.60;;;16.00;99.90;;;;;;5071548;28;20439;-74
2023/10/13 01:34:22;;;;;;;2.30;2.10;;;16.00;99.90;;;;;;5067482;28;20117;-74
2023/10/13 01:36:50;;;;;;;2.92;1.63;;;15.90;99.90;;;;;;5060871;28;20119;-74
2023/10/13 01:39:17;;;;;;;2.20;2.08;;;16.00;99.90;;;;;;5053233;28;20046;-74
2023/10/13 01:41:43;;;;;;;1.90;1.70;;;16.00;99.90;;;;;;5052455;28;20049;-74
2023/10/13 01:44:14;;;;;;;2.13;1.10;;;16.00;99.90;;;;;;5062712;28;20528;-74
2023/10/13 01:46:42;;;;;;;1.80;1.48;;;16.00;99.90;;;;;;5062554;28;20048;-74
2023/10/13 01:49:08;;;;;;;1.17;1.17;;;16.00;99.90;;;;;;5060337;28;20489;-74
2023/10/13 01:51:34;;;;;;;0.68;0.68;;;16.00;99.90;;;;;;5045795;28;20162;-74
2023/10/13 01:54:02;;;;;;;0.68;0.68;;;16.00;99.90;;;;;;5067962;28;20489;-74
2023/10/13 01:56:30;;;;;;;1.70;1.45;;;16.00;99.90;;;;;;5070667;28;20043;-74
2023/10/13 01:58:56;;;;;;;0.75;0.75;;;16.00;99.90;;;;;;5068716;28;20036;-74
2023/10/13 02:01:27;;;;;;;2.83;1.17;;;16.00;99.90;;;;;;5070230;28;20036;-74
2023/10/13 02:04:04;;;;;;;1.65;1.55;;;16.00;99.90;;;;;;5066190;28;20047;-74
2023/10/13 02:06:34;;;;;;;0.68;0.68;;;16.00;99.90;;;;;;5055753;28;20123;-74
2023/10/13 02:09:10;;;;;;;1.73;1.30;;;16.00;99.90;;;;;;5065768;28;20474;-74
2023/10/13 02:11:41;;;;;;;1.10;1.10;;;16.00;99.90;;;;;;5064298;28;20505;-74
2023/10/13 02:14:07;;;;;;;1.38;1.02;;;16.00;99.90;;;;;;5053205;28;20456;-74
2023/10/13 02:16:33;;;;;;;1.27;1.27;;;16.00;99.90;;;;;;5064036;28;20118;-74
2023/10/13 02:19:04;;;;;;;2.30;2.08;;;16.10;99.90;;;;;;5052358;28;20135;-74
2023/10/13 02:21:38;;;;;;;1.48;1.15;;;16.10;99.90;;;;;;5049176;28;20040;-74
2023/10/13 02:24:13;;;;;;;1.33;1.23;;;16.10;99.90;;;;;;5057881;28;20028;-74
2023/10/13 02:26:40;;;;;;;1.10;0.93;;;16.10;99.90;;;;;;5062266;28;20037;-74
2023/10/13 02:29:17;;;;;;;1.65;1.58;;;16.10;99.90;;;;;;5047190;28;20036;-74
2023/10/13 02:31:54;;;;;;;1.83;1.13;;;16.00;99.90;;;;;;5054734;28;20174;-74
2023/10/13 02:34:22;;;;;;;1.48;1.40;;;16.10;99.90;;;;;;5064231;28;20045;-74
2023/10/13 02:36:52;;;;;;;1.08;1.08;;;16.10;99.90;;;;;;5063710;28;20037;-74
2023/10/13 02:39:26;;;;;;;0.63;0.63;;;16.10;99.90;;;;;;5045216;28;20033;-74
2023/10/13 02:41:55;;;;;;;0.70;0.70;;;16.10;99.90;;;;;;5056280;28;20043;-74
2023/10/13 02:44:30;;;;;;;1.33;1.25;;;16.10;99.90;;;;;;5057100;28;20050;-74
2023/10/13 02:46:56;;;;;;;1.77;1.67;;;16.10;99.90;;;;;;5065317;28;20118;-74
2023/10/13 02:49:25;;;;;;;1.23;1.02;;;16.10;99.90;;;;;;5064396;28;20040;-74
2023/10/13 02:51:52;;;;;;;1.98;1.63;;;16.10;99.90;;;;;;5068128;28;20039;-74
2023/10/13 02:54:19;;;;;;;2.47;1.73;;;16.10;99.90;;;;;;5069243;28;20462;-74
2023/10/13 02:57:04;;;;;;;0.73;0.73;;;16.10;99.90;;;;;;5059563;28;20530;-73
2023/10/13 02:59:38;;;;;;;1.65;1.08;;;16.10;99.90;;;;;;5048300;28;20051;-73
2023/10/13 03:02:17;;;;;;;0.88;0.88;;;16.10;99.90;;;;;;5062767;28;20053;-73
2023/10/13 03:04:49;;;;;;;1.25;1.23;;;16.10;99.90;;;;;;5049647;28;20036;-72
2023/10/13 03:07:21;;;;;;;1.67;1.58;;;16.10;99.90;;;;;;5061360;28;20039;-73
2023/10/13 03:09:57;;;;;;;2.17;2.03;;;16.10;99.90;;;;;;5052023;28;20040;-73
2023/10/13 03:12:24;;;;;;;1.25;1.25;;;16.10;99.90;;;;;;5055035;28;20036;-73
2023/10/13 03:15:12;;;;;;;1.77;1.67;;;16.10;99.90;;;;;;5089933;28;20090;-73
2023/10/13 03:17:43;;;;;;;0.65;0.65;;;16.10;99.90;;;;;;5055818;28;20106;-73
2023/10/13 03:20:22;;;;;;;0.70;0.70;;;16.10;99.90;;;;;;5060855;28;20486;-73
2023/10/13 03:22:52;;;;;;;1.35;1.25;;;16.10;99.90;;;;;;5057375;28;20118;-73
2023/10/13 03:25:28;;;;;;;1.25;1.15;;;16.10;99.90;;;;;;5041284;28;20126;-73
2023/10/13 03:30:21;;;;;;;1.08;1.08;;;16.10;99.90;;;;;;5066635;28;20055;-73
2023/10/13 03:32:55;;;;;;;1.55;1.17;;;16.10;99.90;;;;;;5070541;28;20046;-73
2023/10/13 03:35:24;;;;;;;1.40;1.30;;;16.10;99.90;;;;;;5057129;28;20040;-73
2023/10/13 03:37:54;;;;;;;0.75;0.75;;;16.10;99.90;;;;;;5071933;28;20048;-73
2023/10/13 03:43:10;;;;;;;1.05;1.05;;;16.10;99.90;;;;;;5072549;28;20515;-73
2023/10/13 03:45:43;;;;;;;1.00;0.88;;;16.10;99.90;;;;;;5071514;28;20040;-73
2023/10/13 03:51:14;;;;;;;3.22;0.90;;;16.10;99.90;;;;;;5056812;28;20459;-73
2023/10/13 03:53:53;;;;;;;2.17;1.30;;;16.10;99.90;;;;;;5056063;28;20055;-73
2023/10/13 03:56:26;;;;;;;1.20;1.15;;;16.10;99.90;;;;;;5073567;28;20048;-73
2023/10/13 04:04:14;;;;;;;1.40;1.30;;;16.10;99.90;;;;;;5058166;28;20052;-73
2023/10/13 04:17:15;;;;;;;0.98;0.98;;;16.10;99.90;;;;;;5063420;28;20050;-72
2023/10/13 04:20:27;;;;;;;1.35;1.25;;;16.10;99.90;;;;;;5067646;28;20040;-72
2023/10/13 04:41:38;;;;;;;1.58;1.48;;;16.10;99.90;;;;;;5063502;28;20494;-72
2023/10/13 04:44:23;;;;;;;1.30;1.30;;;16.10;99.90;;;;;;5064809;28;20044;-72
2023/10/13 04:49:28;;;;;;;1.83;1.73;;;16.10;99.90;;;;;;5063925;28;20098;-71
2023/10/13 04:51:59;;;;;;;0.82;0.82;;;16.10;99.90;;;;;;5040419;28;20131;-72
2023/10/13 06:29:50;;;;;;;0.55;0.55;;;15.90;99.90;;;;;;5036573;28;20448;-72
2023/10/13 06:32:16;;;;;;;0.95;0.73;;;15.90;99.90;;;;;;5044823;28;20091;-72
2023/10/13 06:34:44;;;;;;;1.05;0.70;;;16.00;99.90;;;;;;5034397;28;20047;-72
2023/10/13 06:37:23;;;;;;;0.40;0.40;;;16.00;99.90;;;;;;5038276;28;20452;-72
2023/10/13 06:40:19;;;;;;;1.75;0.82;;;16.00;99.90;;;;;;5038002;28;20045;-72
2023/10/13 06:42:44;;;;;;;0.90;0.90;;;16.00;99.90;;;;;;5038320;28;20044;-72
2023/10/13 06:45:16;;;;;;;1.20;1.10;;;16.00;99.90;;;;;;5035296;28;20037;-72
2023/10/13 06:47:43;;;;;;;1.30;1.20;;;16.00;99.90;;;;;;5041399;28;20340;-72
2023/10/13 06:50:15;;;;;;;0.73;0.70;;;16.00;99.90;;;;;;5044504;28;20045;-72
2023/10/13 06:52:46;;;;;;;1.10;1.10;;;16.10;99.90;;;;;;5034123;28;20071;-72
2023/10/13 06:55:17;;;;;;;0.95;0.95;;;16.10;99.90;;;;;;5021905;28;20065;-72
2023/10/13 06:57:43;;;;;;;1.45;1.00;;;16.10;99.90;;;;;;5042603;28;20083;-72
2023/10/13 07:00:19;;;;;;;1.95;1.80;;;16.20;99.90;;;;;;5043033;28;20045;-72
2023/10/13 07:02:51;;;;;;;1.05;1.05;;;16.20;99.90;;;;;;5040886;28;20078;-70
2023/10/13 07:05:17;;;;;;;1.35;1.25;;;16.20;99.90;;;;;;5067760;28;20043;-70
2023/10/13 07:07:44;;;;;;;0.77;0.77;;;16.20;99.90;;;;;;5066141;28;20049;-70
2023/10/13 07:10:11;;;;;;;1.13;1.13;;;16.20;99.90;;;;;;5048796;28;20127;-70
2023/10/13 07:12:43;;;;;;;3.38;1.02;;;16.30;99.90;;;;;;5065442;28;20063;-71
2023/10/13 07:17:44;;;;;;;0.93;0.93;;;16.30;99.90;;;;;;5062306;28;20057;-70
2023/10/13 07:20:23;;;;;;;1.38;1.27;;;16.30;99.90;;;;;;5042872;28;20164;-70
2023/10/13 07:23:06;;;;;;;0.80;0.80;;;16.30;99.90;;;;;;5060998;28;20493;-70
2023/10/13 07:25:33;;;;;;;0.50;0.50;;;16.30;99.90;;;;;;5064913;28;20032;-71
2023/10/13 07:27:59;;;;;;;1.65;1.00;;;16.30;99.90;;;;;;5066177;28;20039;-71
2023/10/13 07:30:26;;;;;;;1.05;1.00;;;16.30;99.90;;;;;;5052617;28;20055;-70
2023/10/13 07:32:54;;;;;;;1.08;0.98;;;16.30;99.90;;;;;;5064804;28;20129;-70
2023/10/13 07:35:24;;;;;;;0.50;0.50;;;16.30;99.90;;;;;;5064883;28;20037;-71
2023/10/13 07:37:53;;;;;;;1.20;1.20;;;16.30;99.90;;;;;;5049864;28;20032;-70
2023/10/13 07:43:00;;;;;;;0.95;0.73;;;16.30;99.90;;;;;;5065559;28;20074;-71
2023/10/13 07:45:35;;;;;;;0.73;0.73;;;16.30;99.90;;;;;;5037426;28;20033;-71
2023/10/13 07:48:12;;;;;;;1.17;0.98;;;16.30;99.90;;;;;;5063953;28;20037;-71
2023/10/13 07:50:41;;;;;;;1.30;1.20;;;16.30;99.90;;;;;;5054903;28;20044;-71
2023/10/13 07:53:20;;;;;;;0.50;0.50;;;16.30;99.90;;;;;;5056843;28;20422;-71
2023/10/13 07:55:56;;;;;;;0.50;0.50;;;16.30;99.90;;;;;;5061766;28;20040;-71
2023/10/13 07:58:25;;;;;;;0.45;0.45;;;16.30;99.90;;;;;;5056167;28;20398;-70
2023/10/13 08:01:06;;;;;;;0.88;0.88;;;16.30;99.90;;;;;;5066219;28;20033;-71
2023/10/13 08:03:45;;;;;;;0.45;0.45;;;16.30;99.90;;;;;;5053702;28;20117;-71
2023/10/13 08:08:43;;;;;;;0.75;0.75;;;16.30;99.90;;;;;;5061589;28;20045;-71
2023/10/13 08:13:53;;;;;;;1.00;0.95;;;16.30;99.90;;;;;;5056793;28;20440;-71
2023/10/13 08:16:23;;;;;;;0.77;0.77;;;16.30;99.90;;;;;;5060386;28;20123;-71
2023/10/13 08:18:49;;;;;;;0.50;0.50;;;16.30;99.90;;;;;;5057425;28;20110;-71
2023/10/13 08:21:17;;;;;;;1.13;0.90;;;16.40;99.90;;;;;;5069203;28;20470;-71
2023/10/13 08:26:32;;;;;;;0.30;0.30;;;16.40;99.90;;;;;;5060143;28;19995;-73
2023/10/13 08:37:29;;;;;;;1.35;1.08;;;16.50;99.90;;;;;;5057979;28;20287;-72
2023/10/13 08:48:08;;;;;;;0.77;0.77;;;16.60;99.90;;;;;;5063528;28;20047;-73
2023/10/13 08:50:48;;;;;;;0.47;0.47;;;16.70;99.90;;;;;;5048413;28;20076;-73
2023/10/13 08:53:31;;;;;;;0.70;0.70;;;16.70;99.90;;;;;;5064455;28;20128;-73
2023/10/13 08:56:31;;;;;;;0.70;0.70;;;16.70;99.90;;;;;;5042151;28;20129;-73
2023/10/13 08:59:05;;;;;;;2.72;1.48;;;16.70;99.90;;;;;;5045417;28;20033;-74
2023/10/13 09:01:45;;;;;;;0.73;0.73;;;16.80;99.90;;;;;;5063824;28;20056;-72
2023/10/13 09:06:57;;;;;;;4.07;1.35;;;16.90;99.90;;;;;;5061630;28;20123;-73
2023/10/13 09:09:26;;;;;;;0.98;0.98;;;16.90;99.90;;;;;;5061326;28;20498;-74
2023/10/13 09:12:10;;;;;;;0.80;0.80;;;17.00;99.90;;;;;;5066426;28;20033;-76
2023/10/13 09:14:44;;;;;;;0.90;0.82;;;17.00;99.90;;;;;;5039746;28;20450;-73
2023/10/13 09:19:55;;;;;;;2.05;1.83;;;17.20;99.90;;;;;;5056095;28;20063;-72
2023/10/13 09:22:35;;;;;;;1.30;1.20;;;17.20;99.90;;;;;;5040069;28;20487;-74
2023/10/13 09:25:01;;;;;;;2.72;0.95;;;17.30;99.90;;;;;;5060185;28;20037;-77
2023/10/13 09:27:28;;;;;;;0.95;0.95;;;17.40;99.90;;;;;;5053441;28;20032;-74
2023/10/13 09:30:20;;;;;;;1.35;1.25;;;17.40;99.90;;;;;;5064484;28;20036;-74
2023/10/13 09:32:48;;;;;;;2.53;1.77;;;17.50;99.90;;;;;;5036234;28;20083;-73
2023/10/13 09:35:27;;;;;;;0.65;0.65;;;17.50;99.90;;;;;;5062050;28;20047;-74
2023/10/13 09:37:56;;;;;;;1.33;1.33;;;17.60;99.90;;;;;;5067701;28;20040;-73
2023/10/13 09:40:34;;;;;;;0.85;0.82;;;17.60;99.90;;;;;;5060978;28;20463;-73
2023/10/13 09:43:07;;;;;;;1.33;1.33;;;17.60;99.90;;;;;;5063399;28;20509;-74
2023/10/13 09:45:43;;;;;;;1.10;1.10;;;17.60;99.90;;;;;;5051797;28;20525;-74
2023/10/13 09:48:21;;;;;;;1.30;1.23;;;17.70;99.90;;;;;;5040127;28;20087;-74
2023/10/13 09:50:48;;;;;;;1.67;1.52;;;17.70;99.90;;;;;;5042099;28;20040;-73
2023/10/13 09:53:18;;;;;;;0.90;0.90;;;17.80;99.90;;;;;;5062370;28;20039;-74
2023/10/13 09:56:00;;;;;;;1.33;1.23;;;17.80;99.90;;;;;;5060763;28;20368;-75
2023/10/13 09:58:36;;;;;;;1.48;1.17;;;17.90;99.90;;;;;;5062947;28;20424;-74
2023/10/13 10:01:08;;;;;;;1.48;1.02;;;17.90;99.90;;;;;;5043817;28;20044;-73
2023/10/13 10:03:50;;;;;;;0.80;0.80;;;17.90;99.90;;;;;;5055094;28;20099;-74
2023/10/13 10:06:28;;;;;;;1.17;1.05;;;18.00;99.90;;;;;;5046390;28;20024;-74
2023/10/13 10:09:11;;;;;;;0.88;0.88;;;18.00;99.90;;;;;;5066654;28;20037;-74
2023/10/13 10:11:48;;;;;;;0.82;0.82;;;18.00;99.90;;;;;;5046038;28;20040;-72
2023/10/13 10:14:28;;;;;;;2.63;1.20;;;18.10;99.90;;;;;;5066864;28;20044;-74
2023/10/13 10:17:07;;;;;;;0.82;0.82;;;18.10;99.90;;;;;;5066275;28;20044;-74
2023/10/13 10:19:36;;;;;;;1.02;1.02;;;18.10;99.90;;;;;;5043080;28;20040;-73
2023/10/13 10:22:18;;;;;;;0.95;0.95;;;18.10;99.90;;;;;;5056495;28;20556;-73
2023/10/13 10:24:45;;;;;;;0.73;0.73;;;18.20;99.90;;;;;;5062389;28;20437;-73
2023/10/13 10:27:14;;;;;;;2.10;1.77;;;18.20;99.90;;;;;;5031412;28;20563;-74
2023/10/13 10:30:12;;;;;;;1.45;1.35;;;18.30;99.90;;;;;;5038696;28;20033;-74
2023/10/13 10:32:45;;;;;;;1.55;1.50;;;18.40;99.90;;;;;;5059401;28;20044;-74
2023/10/13 10:35:20;;;;;;;0.88;0.88;;;18.50;99.90;;;;;;5061156;28;20041;-74
2023/10/13 10:37:49;;;;;;;0.90;0.90;;;18.70;99.90;;;;;;5053165;28;20041;-74
2023/10/13 10:40:41;;;;;;;1.23;1.23;;;18.90;99.90;;;;;;5030255;28;20151;-74
2023/10/13 10:43:08;;;;;;;0.77;0.77;;;19.10;99.90;;;;;;5032232;28;20072;-74
2023/10/13 10:45:45;;;;;;;0.98;0.98;;;19.30;99.90;;;;;;5042291;28;20037;-74
2023/10/13 10:48:18;;;;;;;1.00;1.00;;;19.50;99.90;;;;;;5063620;28;20045;-74
2023/10/13 10:50:53;;;;;;;0.93;0.93;;;19.70;99.90;;;;;;5039320;28;20106;-74
2023/10/13 10:53:32;;;;;;;0.90;0.90;;;19.80;99.90;;;;;;5037451;28;20083;-74
2023/10/13 10:58:56;;;;;;;2.53;0.80;;;19.70;99.90;;;;;;5062358;28;20079;-74
2023/10/13 11:01:23;;;;;;;0.90;0.90;;;19.70;99.90;;;;;;5049449;28;20045;-74
2023/10/13 11:04:18;;;;;;;1.45;1.35;;;19.60;99.90;;;;;;5062506;28;20410;-74
2023/10/13 11:06:48;;;;;;;1.67;1.58;;;19.50;99.90;;;;;;5063081;28;20055;-74
2023/10/13 11:11:56;;;;;;;0.90;0.90;;;19.50;99.90;;;;;;5064352;28;20452;-72
2023/10/13 11:14:29;;;;;;;2.45;2.03;;;19.40;99.90;;;;;;5048676;28;20047;-73
2023/10/13 11:17:13;;;;;;;3.65;2.45;;;19.40;99.90;;;;;;5067083;28;20082;-74
2023/10/13 11:19:40;;;;;;;0.80;0.80;;;19.30;99.90;;;;;;5067802;28;20104;-72
2023/10/13 11:22:36;;;;;;;1.30;1.20;;;19.30;99.90;;;;;;5047908;28;20157;-74
2023/10/13 11:25:14;;;;;;;4.50;2.03;;;19.30;99.90;;;;;;5061536;28;20075;-74
2023/10/13 11:30:15;;;;;;;2.10;2.00;;;19.30;99.90;;;;;;5053281;28;20060;-74
2023/10/13 11:32:43;;;;;;;1.60;1.50;;;19.30;99.90;;;;;;5045170;28;20427;-74
2023/10/13 11:35:23;;;;;;;6.13;2.17;;;19.30;99.90;;;;;;5063468;28;20048;-74
2023/10/13 11:38:14;;;;;;;1.05;1.02;;;19.30;99.90;;;;;;5049809;28;20059;-74
2023/10/13 11:40:43;;;;;;;0.88;0.88;;;19.30;99.90;;;;;;5057391;28;20045;-75
2023/10/13 11:43:15;;;;;;;1.23;1.15;;;19.40;99.90;;;;;;5068268;28;20143;-75
2023/10/13 11:46:12;;;;;;;1.98;1.50;;;19.40;99.90;;;;;;5038207;28;20402;-75
2023/10/13 11:48:41;;;;;;;2.20;1.15;;;19.40;99.90;;;;;;5069814;28;20028;-75
2023/10/13 11:51:26;;;;;;;1.67;1.58;;;19.40;99.90;;;;;;5070401;28;20043;-75
2023/10/13 11:53:52;;;;;;;1.65;1.55;;;19.40;99.90;;;;;;5063847;28;20374;-77
2023/10/13 11:56:21;;;;;;;1.38;1.27;;;19.40;99.90;;;;;;5067969;28;20047;-75
2023/10/13 11:58:48;;;;;;;10.30;1.35;;;19.40;99.90;;;;;;5045091;28;20125;-75
2023/10/13 12:11:48;;;;;;;3.70;1.98;;;19.50;99.90;;;;;;5072305;28;20054;-75
2023/10/13 12:14:19;;;;;;;2.25;1.90;;;19.50;99.90;;;;;;5045245;28;20358;-74
2023/10/13 12:16:50;;;;;;;1.65;1.55;;;19.50;99.90;;;;;;5067540;28;20115;-75
2023/10/13 12:19:23;;;;;;;1.15;1.05;;;19.50;99.90;;;;;;5053675;28;20052;-75
2023/10/13 12:21:57;;;;;;;1.50;1.40;;;19.50;99.90;;;;;;5045555;28;20039;-75
2023/10/13 12:24:39;;;;;;;1.73;1.63;;;19.40;99.90;;;;;;5061913;28;20040;-75
2023/10/13 12:27:35;;;;;;;0.88;0.88;;;19.40;99.90;;;;;;5050279;28;20509;-75
2023/10/13 12:30:06;;;;;;;1.17;1.17;;;19.40;99.90;;;;;;5058339;28;20071;-75
2023/10/13 12:32:34;;;;;;;1.40;1.30;;;19.40;99.90;;;;;;5047904;28;20115;-76
2023/10/13 12:51:19;;;;;;;2.38;2.22;;;19.10;99.90;;;;;;5056101;28;20075;-75
2023/10/13 12:53:45;;;;;;;;;;;19.10;99.90;;;;;;5059817;28;20051;-75
2023/10/13 12:56:11;;;;;;;1.90;1.40;;;19.10;99.90;;;;;;5057326;28;20349;-75
2023/10/13 12:58:37;;;;;;;1.35;1.25;;;19.10;99.90;;;;;;5066138;28;20119;-74
2023/10/13 13:01:08;;;;;;;2.63;1.58;;;19.10;99.90;;;;;;5064939;28;20035;-74
2023/10/13 13:03:34;;;;;;;2.63;1.85;;;19.10;99.90;;;;;;5064583;28;20048;-74
2023/10/13 13:06:07;;;;;;;1.30;1.15;;;19.10;99.90;;;;;;5060491;28;20044;-75
2023/10/13 13:08:35;;;;;;;2.42;2.20;;;19.20;99.90;;;;;;5055584;28;20068;-74
2023/10/13 13:11:01;;;;;;;2.33;1.83;;;19.30;99.90;;;;;;5054509;28;20044;-74
2023/10/13 13:13:27;;;;;;;1.17;1.17;;;19.30;99.90;;;;;;5071199;28;20051;-74
2023/10/13 13:15:53;;;;;;;2.88;2.40;;;19.30;99.90;;;;;;5065357;28;20043;-74
2023/10/13 13:18:19;;;;;;;1.65;1.55;;;19.30;99.90;;;;;;5061555;28;20476;-74
2023/10/13 13:20:54;;;;;;;2.38;2.10;;;19.20;99.90;;;;;;5058710;28;20108;-74
2023/10/13 13:23:25;;;;;;;4.15;3.08;;;19.30;99.90;;;;;;5063706;28;20040;-74
2023/10/13 13:25:52;;;;;;;1.83;1.73;;;19.30;99.90;;;;;;5067275;28;20046;-74
2023/10/13 13:28:18;;;;;;;2.05;1.95;;;19.30;99.90;;;;;;5059748;28;20047;-74
2023/10/13 13:30:46;;;;;;;2.28;2.08;;;19.30;99.90;;;;;;5047589;28;20033;-75
2023/10/13 13:33:11;;;;;;;1.45;1.38;;;19.40;99.90;;;;;;5044733;28;20044;-74
2023/10/13 13:35:44;;;;;;;2.85;1.77;;;19.40;99.90;;;;;;5058744;28;20044;-74
2023/10/13 13:38:10;;;;;;;9.73;2.13;;;19.40;99.90;;;;;;5060659;28;20119;-74
2023/10/13 13:40:39;;;;;;;1.15;1.15;;;19.40;99.90;;;;;;5068548;28;20115;-74
2023/10/13 13:43:06;;;;;;;2.03;1.77;;;19.40;99.90;;;;;;5061533;28;20541;-75
2023/10/13 13:45:34;;;;;;;1.80;1.70;;;19.40;99.90;;;;;;5052165;28;20064;-74
2023/10/13 13:48:00;;;;;;;2.47;2.38;;;19.40;99.90;;;;;;5058654;28;20042;-75
2023/10/13 13:50:28;;;;;;;2.22;2.13;;;19.30;99.90;;;;;;5061466;28;20048;-73
2023/10/13 13:52:59;;;;;;;1.50;1.48;;;19.30;99.90;;;;;;5043163;28;20505;-75
2023/10/13 13:55:28;;;;;;;1.38;1.38;;;19.20;99.90;;;;;;5069701;28;20087;-74
2023/10/13 13:57:57;;;;;;;1.23;1.23;;;19.10;99.90;;;;;;5055581;28;20052;-74
2023/10/13 14:00:37;;;;;;;1.80;1.70;;;19.10;99.90;;;;;;5060633;28;20042;-75
2023/10/13 14:03:12;;;;;;;2.25;2.05;;;19.00;99.90;;;;;;5062574;28;20395;-74
2023/10/13 14:05:45;;;;;;;1.90;1.35;;;18.90;99.90;;;;;;5038302;28;20188;-74
2023/10/13 14:08:15;;;;;;;3.28;2.15;;;18.80;99.90;;;;;;5049798;28;20047;-74
2023/10/13 14:16:29;;;;;;;1.65;1.50;;;18.70;99.90;;;;;;4968903;28;20057;-74
2023/10/13 14:18:54;;;;;;;1.38;1.38;;;18.60;99.90;;;;;;4967779;28;20113;-74
2023/10/13 14:21:24;;;;;;;1.50;1.50;;;18.60;99.90;;;;;;5010336;28;20048;-74
2023/10/13 14:23:53;;;;;;;1.92;1.73;;;18.60;99.90;;;;;;5061475;28;20044;-74
2023/10/13 14:26:21;;;;;;;2.53;2.38;;;18.50;99.90;;;;;;5062735;28;20044;-74
2023/10/13 14:28:51;;;;;;;1.50;1.45;;;18.50;99.90;;;;;;5059859;28;20078;-74
2023/10/13 14:31:21;;;;;;;1.60;1.52;;;18.50;99.90;;;;;;5072886;28;20032;-74
2023/10/13 14:33:47;;;;;;;3.03;2.78;;;18.50;99.90;;;;;;5046812;28;20046;-74
2023/10/13 14:36:13;;;;;;;2.17;2.08;;;18.50;99.90;;;;;;5062920;28;20036;-75
2023/10/13 14:38:44;;;;;;;1.25;1.15;;;18.50;99.90;;;;;;5058437;28;20567;-74
2023/10/13 14:41:09;;;;;;;1.58;1.20;;;18.50;99.90;;;;;;5064189;28;20052;-75
2023/10/13 14:43:35;;;;;;;1.05;1.02;;;18.50;99.90;;;;;;5047985;28;20047;-75
2023/10/13 14:46:01;;;;;;;1.92;1.83;;;18.50;99.90;;;;;;5050601;28;20424;-74
2023/10/13 14:48:27;;;;;;;3.20;1.95;;;18.50;99.90;;;;;;5066486;28;20044;-74
2023/10/13 14:50:52;;;;;;;2.40;2.28;;;18.50;99.90;;;;;;5041895;28;20086;-74
2023/10/13 14:53:19;;;;;;;2.10;1.83;;;18.50;99.90;;;;;;5059889;28;20100;-74
2023/10/13 14:55:45;;;;;;;1.10;1.10;;;18.50;99.90;;;;;;5055641;28;20040;-74
2023/10/13 14:58:16;;;;;;;1.33;0.95;;;18.50;99.90;;;;;;5053655;28;20062;-75
2023/10/13 15:00:45;;;;;;;2.78;2.58;;;18.50;99.90;;;;;;5078834;28;20490;-74
2023/10/13 15:03:11;;;;;;;1.48;1.40;;;18.50;99.90;;;;;;5065860;28;20056;-75
2023/10/13 15:05:43;;;;;;;3.88;2.30;;;18.50;99.90;;;;;;5061376;28;20051;-74
2023/10/13 15:08:09;;;;;;;1.63;1.50;;;18.50;99.90;;;;;;5032459;28;20103;-74
2023/10/13 15:10:36;;;;;;;3.30;2.58;;;18.50;99.90;;;;;;5066984;28;20577;-74
2023/10/13 15:13:05;;;;;;;1.33;1.20;;;18.50;99.90;;;;;;5068075;28;20094;-72
2023/10/13 15:15:32;;;;;;;2.47;2.28;;;18.50;99.90;;;;;;5059415;28;20037;-74
2023/10/13 15:17:58;;;;;;;1.83;1.40;;;18.40;99.90;;;;;;5063175;28;20047;-73
2023/10/13 15:20:24;;;;;;;1.67;1.58;;;18.30;99.90;;;;;;5067756;28;20044;-73
2023/10/13 15:22:53;;;;;;;1.75;1.65;;;18.30;99.90;;;;;;5056410;28;20039;-73
2023/10/13 15:25:28;;;;;;;1.70;1.60;;;18.20;99.90;;;;;;5045491;28;20284;-73
2023/10/13 15:28:04;;;;;;;2.83;2.63;;;18.10;99.90;;;;;;5068427;28;20409;-73
2023/10/13 15:30:52;;;;;;;2.38;2.00;;;18.00;99.90;;;;;;5062116;28;20683;-73
2023/10/13 15:33:19;;;;;;;2.33;2.15;;;18.00;99.90;;;;;;5063553;28;20254;-73
2023/10/13 15:35:45;;;;;;;2.85;1.60;;;17.90;99.90;;;;;;5052891;28;20067;-73
2023/10/13 15:38:14;;;;;;;1.15;1.05;;;17.90;99.90;;;;;;5059557;28;20036;-73
2023/10/13 15:40:44;;;;;;;1.10;1.10;;;17.80;99.90;;;;;;5056002;28;20492;-73
2023/10/13 15:43:10;;;;;;;1.38;1.38;;;17.80;99.90;;;;;;5068833;28;20072;-74
2023/10/13 15:45:39;;;;;;;1.48;1.38;;;17.70;99.90;;;;;;5058531;28;20394;-74
2023/10/13 15:48:06;;;;;;;6.80;3.70;;;17.70;99.90;;;;;;5064592;28;20050;-74
2023/10/13 15:50:39;;;;;;;2.53;2.33;;;17.70;99.90;;;;;;5043128;28;20498;-73
2023/10/13 15:53:06;;;;;;;1.98;1.67;;;17.70;99.90;;;;;;5062611;28;20029;-73
2023/10/13 15:55:36;;;;;;;1.73;1.63;;;17.70;99.90;;;;;;5048017;28;20043;-73
2023/10/13 15:58:02;;;;;;;4.90;3.40;;;17.60;99.90;;;;;;5044447;28;20040;-73
2023/10/13 16:00:29;;;;;;;3.63;2.10;;;17.60;99.90;;;;;;5060973;28;20081;-74
2023/10/13 16:02:59;;;;;;;3.23;2.93;;;17.60;99.90;;;;;;5062578;28;20182;-74
2023/10/13 16:05:34;;;;;;;1.55;1.45;;;17.60;99.90;;;;;;5044651;28;20314;-74
2023/10/13 16:08:00;;;;;;;8.10;2.15;;;17.60;99.90;;;;;;5061345;28;20493;-74
2023/10/13 16:10:26;;;;;;;1.58;1.55;;;17.60;99.90;;;;;;5064151;28;20276;-74
2023/10/13 16:12:53;;;;;;;2.30;2.10;;;17.60;99.90;;;;;;5072959;28;20028;-74
2023/10/13 16:15:21;;;;;;;2.10;1.15;;;17.60;99.90;;;;;;5069512;28;20048;-74
2023/10/13 16:17:47;;;;;;;;;;;17.50;99.90;;;;;;5066810;28;20047;-74
2023/10/13 16:20:18;;;;;;;1.83;1.60;;;17.50;99.90;;;;;;5064012;28;19924;-74
2023/10/13 16:22:45;;;;;;;1.55;1.45;;;17.50;99.90;;;;;;5060866;28;20335;-74
2023/10/13 16:25:12;;;;;;;1.48;1.38;;;17.50;99.90;;;;;;5054510;28;20168;-73
2023/10/13 16:27:42;;;;;;;2.53;1.50;;;17.50;99.90;;;;;;5072226;28;20119;-74
2023/10/13 16:30:19;;;;;;;1.13;1.13;;;17.50;99.90;;;;;;5054837;28;20481;-74
2023/10/13 16:32:45;;;;;;;1.17;1.17;;;17.50;99.90;;;;;;5058540;28;20427;-74
2023/10/13 16:35:18;;;;;;;1.30;1.25;;;17.50;99.90;;;;;;5044208;28;20138;-73
2023/10/13 16:37:50;;;;;;;1.05;1.00;;;17.50;99.90;;;;;;5063042;28;20036;-74
2023/10/13 16:40:20;;;;;;;1.65;1.55;;;17.50;99.90;;;;;;5046013;28;20036;-74
2023/10/13 16:42:47;;;;;;;0.80;0.80;;;17.50;99.90;;;;;;5061623;28;20047;-73
2023/10/13 16:45:22;;;;;;;1.95;1.30;;;17.50;99.90;;;;;;5042817;28;20077;-74
2023/10/13 16:47:48;;;;;;;1.40;1.40;;;17.50;99.90;;;;;;5060649;28;20093;-74
2023/10/13 16:50:16;;;;;;;1.17;1.17;;;17.50;99.90;;;;;;5065545;28;20072;-74
2023/10/13 16:52:45;;;;;;;;;;;17.50;99.90;;;;;;5058121;28;20130;-74